FredonyerEastRWIS Atmospheric Data: 03/15/2019 Summary  Detailed Graphs  Station List

  Temperature     Wind Precipitation Visibility
Timestamp Air Wet
Bulb
Dew-
point
24-hr
Max
24-hr
Min
Relative
Humidity
Atmospheric
Pressure
Avg
Speed
Avg
Dir
Spot
Speed
Spot
Dir
Max
Speed
Max
Dir
  Rate Situation Start End 1 hr 3 hr 6 hr 12 hr 24 hr   Situation
Date Time °F °F °F °F °F % in Hg mph ° mph ° mph ° Y/N in/hr text Date Time Date Time in in in in in mi text
03/15/2019 12:08 AM 20.48 19.58 17.42 41.54 12.74 87.0 Not Reported 0.00 N 0.00 N 0.00 N No 0.000 No Precipitation 03/12/2019 01:16 PM 03/12/2019 01:21 PM 0.000 0.000 0.000 0.000 0.000 Not Reported Not Reported
03/15/2019 12:23 AM 20.12 19.22 17.06 41.54 12.74 87.0 Not Reported 0.00 N 0.00 N 0.00 N No 0.000 No Precipitation 03/12/2019 01:16 PM 03/12/2019 01:21 PM 0.000 0.000 0.000 0.000 0.000 Not Reported Not Reported
03/15/2019 12:38 AM 19.76 18.86 16.88 41.54 12.74 88.0 Not Reported 0.22 N 0.00 N 0.00 N No 0.000 No Precipitation 03/12/2019 01:16 PM 03/12/2019 01:21 PM 0.000 0.000 0.000 0.000 0.000 Not Reported Not Reported
03/15/2019 12:53 AM 19.58 18.86 16.88 41.54 12.74 89.0 Not Reported 0.00 N 0.00 N 0.22 N No 0.000 No Precipitation 03/12/2019 01:16 PM 03/12/2019 01:21 PM 0.000 0.000 0.000 0.000 0.000 Not Reported Not Reported
03/15/2019 01:08 AM 19.40 18.68 17.06 41.54 12.74 90.0 Not Reported 0.00 N 0.00 N 0.45 W No 0.000 No Precipitation 03/12/2019 01:16 PM 03/12/2019 01:21 PM 0.000 0.000 0.000 0.000 0.000 Not Reported Not Reported
03/15/2019 01:23 AM 19.22 18.50 16.70 41.54 12.74 89.0 Not Reported 0.00 N 0.00 N 0.67 E No 0.000 No Precipitation 03/12/2019 01:16 PM 03/12/2019 01:21 PM 0.000 0.000 0.000 0.000 0.000 Not Reported Not Reported
03/15/2019 01:38 AM 19.04 18.32 16.52 41.54 12.74 90.0 Not Reported 0.00 NW 0.00 NW 0.45 N No 0.000 No Precipitation 03/12/2019 01:16 PM 03/12/2019 01:21 PM 0.000 0.000 0.000 0.000 0.000 Not Reported Not Reported
03/15/2019 01:53 AM 18.68 17.96 16.34 41.54 12.74 90.0 Not Reported 0.00 N 0.00 NW 0.00 NW No 0.000 No Precipitation 03/12/2019 01:16 PM 03/12/2019 01:21 PM 0.000 0.000 0.000 0.000 0.000 Not Reported Not Reported
03/15/2019 02:08 AM 18.32 17.78 16.52 41.54 12.74 91.0 Not Reported 0.00 N 0.00 NW 0.00 NW No 0.000 No Precipitation 03/12/2019 01:16 PM 03/12/2019 01:21 PM 0.000 0.000 0.000 0.000 0.000 Not Reported Not Reported
03/15/2019 02:23 AM 18.50 17.96 16.70 41.54 12.74 92.0 Not Reported 0.00 N 0.00 NW 0.89 NW No 0.000 No Precipitation 03/12/2019 01:16 PM 03/12/2019 01:21 PM 0.000 0.000 0.000 0.000 0.000 Not Reported Not Reported
03/15/2019 02:38 AM 18.14 17.60 16.16 41.54 12.74 91.0 Not Reported 0.00 N 0.00 NW 0.00 NW No 0.000 No Precipitation 03/12/2019 01:16 PM 03/12/2019 01:21 PM 0.000 0.000 0.000 0.000 0.000 Not Reported Not Reported
03/15/2019 02:53 AM 17.96 17.42 15.98 41.54 12.74 92.0 Not Reported 0.00 N 0.00 NW 0.00 NW No 0.000 No Precipitation 03/12/2019 01:16 PM 03/12/2019 01:21 PM 0.000 0.000 0.000 0.000 0.000 Not Reported Not Reported
03/15/2019 03:08 AM 17.60 17.24 15.98 41.54 12.74 92.0 Not Reported 0.00 N 0.00 NW 0.00 NW No 0.000 No Precipitation 03/12/2019 01:16 PM 03/12/2019 01:21 PM 0.000 0.000 0.000 0.000 0.000 Not Reported Not Reported
03/15/2019 03:23 AM 17.60 17.24 16.16 41.54 12.74 93.0 Not Reported 0.00 N 0.00 NW 0.22 NW No 0.000 No Precipitation 03/12/2019 01:16 PM 03/12/2019 01:21 PM 0.000 0.000 0.000 0.000 0.000 Not Reported Not Reported
03/15/2019 03:38 AM 17.24 16.88 15.80 41.54 12.74 93.0 Not Reported 0.00 N 0.00 NW 0.00 NW No 0.000 No Precipitation 03/12/2019 01:16 PM 03/12/2019 01:21 PM 0.000 0.000 0.000 0.000 0.000 Not Reported Not Reported
03/15/2019 03:53 AM 17.24 16.88 15.80 41.54 12.74 94.0 Not Reported 0.00 N 0.00 NW 0.45 NW No 0.000 No Precipitation 03/12/2019 01:16 PM 03/12/2019 01:21 PM 0.000 0.000 0.000 0.000 0.000 Not Reported Not Reported
03/15/2019 04:08 AM 17.24 16.88 15.98 41.54 12.74 94.0 Not Reported 0.00 N 0.00 NW 0.00 NW No 0.000 No Precipitation 03/12/2019 01:16 PM 03/12/2019 01:21 PM 0.000 0.000 0.000 0.000 0.000 Not Reported Not Reported
03/15/2019 04:23 AM 17.42 17.06 16.16 41.54 12.74 94.0 Not Reported 0.00 NW 0.45 NW 0.45 NW No 0.000 No Precipitation 03/12/2019 01:16 PM 03/12/2019 01:21 PM 0.000 0.000 0.000 0.000 0.000 Not Reported Not Reported
03/15/2019 04:38 AM 17.42 17.06 15.98 41.54 12.74 93.0 Not Reported 0.00 N 0.00 NW 0.45 NW No 0.000 No Precipitation 03/12/2019 01:16 PM 03/12/2019 01:21 PM 0.000 0.000 0.000 0.000 0.000 Not Reported Not Reported
03/15/2019 04:53 AM 17.24 16.88 15.80 41.54 12.74 94.0 Not Reported 0.45 NW 0.00 NW 0.00 NW No 0.000 No Precipitation 03/12/2019 01:16 PM 03/12/2019 01:21 PM 0.000 0.000 0.000 0.000 0.000 Not Reported Not Reported
03/15/2019 05:08 AM 17.78 17.42 16.34 41.54 12.74 94.0 Not Reported 0.00 NW 0.22 NW 0.67 NW No 0.000 No Precipitation 03/12/2019 01:16 PM 03/12/2019 01:21 PM 0.000 0.000 0.000 0.000 0.000 Not Reported Not Reported
03/15/2019 05:23 AM 17.78 17.42 16.16 41.54 12.74 93.0 Not Reported 0.00 N 0.00 NW 0.67 NW No 0.000 No Precipitation 03/12/2019 01:16 PM 03/12/2019 01:21 PM 0.000 0.000 0.000 0.000 0.000 Not Reported Not Reported
03/15/2019 05:38 AM 17.78 17.42 16.16 41.54 12.74 93.0 Not Reported 0.00 NE 0.00 NE 0.22 NE No 0.000 No Precipitation 03/12/2019 01:16 PM 03/12/2019 01:21 PM 0.000 0.000 0.000 0.000 0.000 Not Reported Not Reported
03/15/2019 05:53 AM 17.78 17.42 16.34 41.54 12.74 93.0 Not Reported 0.00 NE 0.00 NE 0.00 NE No 0.000 No Precipitation 03/12/2019 01:16 PM 03/12/2019 01:21 PM 0.000 0.000 0.000 0.000 0.000 Not Reported Not Reported
03/15/2019 06:08 AM 17.60 17.24 15.98 41.54 12.74 93.0 Not Reported 0.00 N 0.00 NE 0.22 NE No 0.000 No Precipitation 03/12/2019 01:16 PM 03/12/2019 01:21 PM 0.000 0.000 0.000 0.000 0.000 Not Reported Not Reported
03/15/2019 06:23 AM 17.42 17.06 15.80 41.54 12.74 93.0 Not Reported 0.89 NW 0.67 NW 1.12 NW No 0.000 No Precipitation 03/12/2019 01:16 PM 03/12/2019 01:21 PM 0.000 0.000 0.000 0.000 0.000 Not Reported Not Reported
03/15/2019 06:38 AM 17.42 17.06 15.80 41.54 12.74 92.0 Not Reported 0.00 N 0.00 N 1.34 NW No 0.000 No Precipitation 03/12/2019 01:16 PM 03/12/2019 01:21 PM 0.000 0.000 0.000 0.000 0.000 Not Reported Not Reported
03/15/2019 06:53 AM 17.42 17.06 15.80 41.54 12.74 93.0 Not Reported 0.45 N 0.00 N 0.45 S No 0.000 No Precipitation 03/12/2019 01:16 PM 03/12/2019 01:21 PM 0.000 0.000 0.000 0.000 0.000 Not Reported Not Reported
03/15/2019 07:08 AM 17.42 16.88 15.80 41.54 12.74 93.0 Not Reported 0.00 NW 0.45 NW 0.89 N No 0.000 No Precipitation 03/12/2019 01:16 PM 03/12/2019 01:21 PM 0.000 0.000 0.000 0.000 0.000 Not Reported Not Reported
03/15/2019 07:23 AM 17.60 17.24 15.98 41.54 12.74 93.0 Not Reported 0.45 NW 0.00 N 1.34 W No 0.000 No Precipitation 03/12/2019 01:16 PM 03/12/2019 01:21 PM 0.000 0.000 0.000 0.000 0.000 Not Reported Not Reported
03/15/2019 07:38 AM 17.24 16.70 15.44 41.54 13.10 92.0 Not Reported 0.22 NW 0.67 NW 1.57 NE No 0.000 No Precipitation 03/12/2019 01:16 PM 03/12/2019 01:21 PM 0.000 0.000 0.000 0.000 0.000 Not Reported Not Reported
03/15/2019 07:53 AM 17.42 16.88 15.62 41.54 13.64 92.0 Not Reported 0.00 N 0.00 NW 0.67 NW No 0.000 No Precipitation 03/12/2019 01:16 PM 03/12/2019 01:21 PM 0.000 0.000 0.000 0.000 0.000 Not Reported Not Reported
03/15/2019 08:08 AM 18.14 17.60 16.34 41.54 15.08 92.0 Not Reported 0.45 NW 0.00 NW 0.00 NW No 0.000 No Precipitation 03/12/2019 01:16 PM 03/12/2019 01:21 PM 0.000 0.000 0.000 0.000 0.000 Not Reported Not Reported
03/15/2019 08:23 AM 19.40 18.68 16.88 41.54 16.88 90.0 Not Reported 0.00 N 0.00 SE 0.89 SE No 0.000 No Precipitation 03/12/2019 01:16 PM 03/12/2019 01:21 PM 0.000 0.000 0.000 0.000 0.000 Not Reported Not Reported
03/15/2019 08:38 AM 23.00 21.20 17.06 41.54 17.06 77.0 Not Reported 0.00 N 0.00 N 0.00 SE No 0.000 No Precipitation 03/12/2019 01:16 PM 03/12/2019 01:21 PM 0.000 0.000 0.000 0.000 0.000 Not Reported Not Reported
03/15/2019 08:53 AM 24.08 22.28 17.78 41.54 17.06 76.0 Not Reported 0.45 SE 0.00 NE 0.89 NE No 0.000 No Precipitation 03/12/2019 01:16 PM 03/12/2019 01:21 PM 0.000 0.000 0.000 0.000 0.000 Not Reported Not Reported
03/15/2019 09:08 AM 29.30 25.52 16.88 41.54 17.06 59.0 Not Reported 0.67 S 0.00 S 1.57 SE No 0.000 No Precipitation 03/12/2019 01:16 PM 03/12/2019 01:21 PM 0.000 0.000 0.000 0.000 0.000 Not Reported Not Reported
03/15/2019 09:23 AM 32.18 27.50 17.06 41.54 17.06 52.0 Not Reported 1.57 SE 0.00 SW 4.03 NE No 0.000 No Precipitation 03/12/2019 01:16 PM 03/12/2019 01:21 PM 0.000 0.000 0.000 0.000 0.000 Not Reported Not Reported
03/15/2019 09:38 AM 32.72 27.86 17.06 41.54 17.06 51.0 Not Reported 2.01 E 2.01 N 2.01 E No 0.000 No Precipitation 03/12/2019 01:16 PM 03/12/2019 01:21 PM 0.000 0.000 0.000 0.000 0.000 Not Reported Not Reported
03/15/2019 09:53 AM 33.26 28.22 16.88 41.54 17.06 49.0 Not Reported 1.79 SW 4.25 E 4.70 NE No 0.000 No Precipitation 03/12/2019 01:16 PM 03/12/2019 01:21 PM 0.000 0.000 0.000 0.000 0.000 Not Reported Not Reported
03/15/2019 10:08 AM 34.16 28.94 17.78 41.54 17.06 50.0 Not Reported 3.80 SE 3.58 E 4.92 SE No 0.000 No Precipitation 03/12/2019 01:16 PM 03/12/2019 01:21 PM 0.000 0.000 0.000 0.000 0.000 Not Reported Not Reported
03/15/2019 10:23 AM 35.24 29.66 18.14 41.54 17.06 49.0 Not Reported 2.91 SE 2.46 SE 3.36 SE No 0.000 No Precipitation 03/12/2019 01:16 PM 03/12/2019 01:21 PM 0.000 0.000 0.000 0.000 0.000 Not Reported Not Reported
03/15/2019 10:38 AM 36.86 30.92 19.04 41.54 17.06 47.0 Not Reported 0.89 N 1.12 S 7.61 E No 0.000 No Precipitation 03/12/2019 01:16 PM 03/12/2019 01:21 PM 0.000 0.000 0.000 0.000 0.000 Not Reported Not Reported
03/15/2019 10:53 AM 37.22 30.38 16.34 41.54 17.06 42.0 Not Reported 4.25 NE 2.24 SE 5.59 NE No 0.000 No Precipitation 03/12/2019 01:16 PM 03/12/2019 01:21 PM 0.000 0.000 0.000 0.000 0.000 Not Reported Not Reported
03/15/2019 11:08 AM 38.66 31.64 17.42 41.54 17.06 41.0 Not Reported 3.13 N 5.82 SE 6.26 NE No 0.000 No Precipitation 03/12/2019 01:16 PM 03/12/2019 01:21 PM 0.000 0.000 0.000 0.000 0.000 Not Reported Not Reported
03/15/2019 11:23 AM 40.46 32.36 17.06 41.54 17.06 38.0 Not Reported 3.58 NE 2.68 E 7.16 N No 0.000 No Precipitation 03/12/2019 01:16 PM 03/12/2019 01:21 PM 0.000 0.000 0.000 0.000 0.000 Not Reported Not Reported
03/15/2019 11:38 AM 39.92 32.36 18.32 41.54 17.06 41.0 Not Reported 3.13 E 2.24 NE 7.83 E No 0.000 No Precipitation 03/12/2019 01:16 PM 03/12/2019 01:21 PM 0.000 0.000 0.000 0.000 0.000 Not Reported Not Reported
03/15/2019 11:53 AM 39.02 31.82 17.42 41.54 17.06 40.0 Not Reported 5.14 SE 4.03 NE 7.83 SE No 0.000 No Precipitation 03/12/2019 01:16 PM 03/12/2019 01:21 PM 0.000 0.000 0.000 0.000 0.000 Not Reported Not Reported
03/15/2019 12:08 PM 40.46 32.54 17.78 41.54 17.06 39.0 Not Reported 2.91 N 1.57 NE 8.05 SE No 0.000 No Precipitation 03/12/2019 01:16 PM 03/12/2019 01:21 PM 0.000 0.000 0.000 0.000 0.000 Not Reported Not Reported
03/15/2019 12:23 PM 40.64 33.08 19.40 41.54 17.06 41.0 Not Reported 2.46 SW 7.38 S 6.04 S No 0.000 No Precipitation 03/12/2019 01:16 PM 03/12/2019 01:21 PM 0.000 0.000 0.000 0.000 0.000 Not Reported Not Reported
03/15/2019 12:38 PM 41.90 33.44 17.96 42.26 17.06 37.0 Not Reported 1.79 NW 5.59 NE 7.38 S No 0.000 No Precipitation 03/12/2019 01:16 PM 03/12/2019 01:21 PM 0.000 0.000 0.000 0.000 0.000 Not Reported Not Reported
03/15/2019 12:53 PM 41.72 33.62 19.40 42.44 17.06 40.0 Not Reported 5.14 SE 2.91 NW 6.49 NE No 0.000 No Precipitation 03/12/2019 01:16 PM 03/12/2019 01:21 PM 0.000 0.000 0.000 0.000 0.000 Not Reported Not Reported
03/15/2019 01:08 PM 42.80 34.16 18.86 42.80 17.06 37.0 Not Reported 4.47 SE 4.47 NE 6.26 S No 0.000 No Precipitation 03/12/2019 01:16 PM 03/12/2019 01:21 PM 0.000 0.000 0.000 0.000 0.000 Not Reported Not Reported
03/15/2019 01:23 PM 42.26 33.62 17.24 43.34 17.06 35.0 Not Reported 4.47 S 2.91 NE 5.37 S No 0.000 No Precipitation 03/12/2019 01:16 PM 03/12/2019 01:21 PM 0.000 0.000 0.000 0.000 0.000 Not Reported Not Reported
03/15/2019 01:38 PM 42.62 34.16 18.50 43.52 17.06 37.0 Not Reported 2.24 S 4.92 S 6.93 SE No 0.000 No Precipitation 03/12/2019 01:16 PM 03/12/2019 01:21 PM 0.000 0.000 0.000 0.000 0.000 Not Reported Not Reported
03/15/2019 01:53 PM 43.34 34.34 17.60 43.70 17.06 34.0 Not Reported 3.58 E 0.45 SE 8.05 S No 0.000 No Precipitation 03/12/2019 01:16 PM 03/12/2019 01:21 PM 0.000 0.000 0.000 0.000 0.000 Not Reported Not Reported
03/15/2019 02:08 PM 44.78 34.88 17.24 44.78 17.06 32.0 Not Reported 3.13 SE 2.46 S 5.82 NE No 0.000 No Precipitation 03/12/2019 01:16 PM 03/12/2019 01:21 PM 0.000 0.000 0.000 0.000 0.000 Not Reported Not Reported
03/15/2019 02:23 PM 44.06 34.52 17.06 44.78 17.06 33.0 Not Reported 2.91 SE 2.46 W 5.37 S No 0.000 No Precipitation 03/12/2019 01:16 PM 03/12/2019 01:21 PM 0.000 0.000 0.000 0.000 0.000 Not Reported Not Reported
03/15/2019 02:38 PM 43.88 34.88 19.04 44.78 17.06 36.0 Not Reported 4.03 S 2.46 S 7.38 SE No 0.000 No Precipitation 03/12/2019 01:16 PM 03/12/2019 01:21 PM 0.000 0.000 0.000 0.000 0.000 Not Reported Not Reported
03/15/2019 02:53 PM 43.34 34.16 16.70 44.96 17.06 33.0 Not Reported 8.95 SE 4.92 SE 7.38 S No 0.000 No Precipitation 03/12/2019 01:16 PM 03/12/2019 01:21 PM 0.000 0.000 0.000 0.000 0.000 Not Reported Not Reported
03/15/2019 03:08 PM 45.32 35.78 18.86 45.86 17.06 34.0 Not Reported 2.46 S 2.91 S 12.30 SE No 0.000 No Precipitation 03/12/2019 01:16 PM 03/12/2019 01:21 PM 0.000 0.000 0.000 0.000 0.000 Not Reported Not Reported
03/15/2019 03:23 PM 45.50 35.78 18.86 45.86 17.06 33.0 Not Reported 5.14 S 2.46 SW 7.38 SE No 0.000 No Precipitation 03/12/2019 01:16 PM 03/12/2019 01:21 PM 0.000 0.000 0.000 0.000 0.000 Not Reported Not Reported
03/15/2019 03:38 PM 46.04 35.96 18.14 46.76 17.06 32.0 Not Reported 4.25 SE 3.58 N 6.71 S No 0.000 No Precipitation 03/12/2019 01:16 PM 03/12/2019 01:21 PM 0.000 0.000 0.000 0.000 0.000 Not Reported Not Reported
03/15/2019 03:53 PM 46.04 35.96 18.50 47.48 17.06 32.0 Not Reported 2.68 NE 4.92 NE 5.14 N No 0.000 No Precipitation 03/12/2019 01:16 PM 03/12/2019 01:21 PM 0.000 0.000 0.000 0.000 0.000 Not Reported Not Reported
03/15/2019 04:08 PM 46.40 35.96 17.06 47.48 17.06 30.0 Not Reported 2.68 E 3.80 S 4.92 NE No 0.000 No Precipitation 03/12/2019 01:16 PM 03/12/2019 01:21 PM 0.000 0.000 0.000 0.000 0.000 Not Reported Not Reported
03/15/2019 04:23 PM 46.94 35.96 15.62 47.48 17.06 27.0 Not Reported 1.79 S 2.46 E 6.49 NE No 0.000 No Precipitation 03/12/2019 01:16 PM 03/12/2019 01:21 PM 0.000 0.000 0.000 0.000 0.000 Not Reported Not Reported
03/15/2019 04:38 PM 47.12 36.14 15.98 47.48 17.06 28.0 Not Reported 2.01 SE 3.13 E 4.70 NE No 0.000 No Precipitation 03/12/2019 01:16 PM 03/12/2019 01:21 PM 0.000 0.000 0.000 0.000 0.000 Not Reported Not Reported
03/15/2019 04:53 PM 47.12 36.32 17.24 47.48 17.06 29.0 Not Reported 3.13 E 1.79 S 6.26 E No 0.000 No Precipitation 03/12/2019 01:16 PM 03/12/2019 01:21 PM 0.000 0.000 0.000 0.000 0.000 Not Reported Not Reported
03/15/2019 05:08 PM 46.40 35.78 16.70 47.48 17.06 29.0 Not Reported 2.91 S 3.58 SE 6.26 SE No 0.000 No Precipitation 03/12/2019 01:16 PM 03/12/2019 01:21 PM 0.000 0.000 0.000 0.000 0.000 Not Reported Not Reported
03/15/2019 05:23 PM 46.58 35.78 15.98 47.48 17.06 28.0 Not Reported 2.91 SE 2.46 NW 6.26 N No 0.000 No Precipitation 03/12/2019 01:16 PM 03/12/2019 01:21 PM 0.000 0.000 0.000 0.000 0.000 Not Reported Not Reported
03/15/2019 05:38 PM 47.30 35.96 14.90 47.48 17.06 26.0 Not Reported 1.34 W 0.45 SW 6.26 E No 0.000 No Precipitation 03/12/2019 01:16 PM 03/12/2019 01:21 PM 0.000 0.000 0.000 0.000 0.000 Not Reported Not Reported
03/15/2019 05:53 PM 45.32 34.88 15.44 47.48 17.06 29.0 Not Reported 1.79 S 1.12 W 4.47 E No 0.000 No Precipitation 03/12/2019 01:16 PM 03/12/2019 01:21 PM 0.000 0.000 0.000 0.000 0.000 Not Reported Not Reported
03/15/2019 06:08 PM 40.28 32.90 19.40 47.48 17.06 42.0 Not Reported 0.89 W 0.89 W 2.68 NW No 0.000 No Precipitation 03/12/2019 01:16 PM 03/12/2019 01:21 PM 0.000 0.000 0.000 0.000 0.000 Not Reported Not Reported
03/15/2019 06:23 PM 36.68 32.54 25.34 47.48 17.06 62.0 Not Reported 1.34 N 2.24 N 2.01 NW No 0.000 No Precipitation 03/12/2019 01:16 PM 03/12/2019 01:21 PM 0.000 0.000 0.000 0.000 0.000 Not Reported Not Reported
03/15/2019 06:38 PM 34.70 31.46 25.88 47.48 17.06 69.0 Not Reported 1.12 NW 1.12 NW 4.70 N No 0.000 No Precipitation 03/12/2019 01:16 PM 03/12/2019 01:21 PM 0.000 0.000 0.000 0.000 0.000 Not Reported Not Reported
03/15/2019 06:53 PM 33.62 31.10 26.60 47.48 17.06 74.0 Not Reported 1.12 N 1.34 NW 2.01 N No 0.000 No Precipitation 03/12/2019 01:16 PM 03/12/2019 01:21 PM 0.000 0.000 0.000 0.000 0.000 Not Reported Not Reported
03/15/2019 07:08 PM 32.72 30.02 25.16 47.48 17.06 72.0 Not Reported 0.89 NW 1.12 NW 2.24 N No 0.000 No Precipitation 03/12/2019 01:16 PM 03/12/2019 01:21 PM 0.000 0.000 0.000 0.000 0.000 Not Reported Not Reported
03/15/2019 07:23 PM 31.46 28.58 23.18 47.48 17.06 71.0 Not Reported 0.00 NW 0.89 NW 1.57 N No 0.000 No Precipitation 03/12/2019 01:16 PM 03/12/2019 01:21 PM 0.000 0.000 0.000 0.000 0.000 Not Reported Not Reported
03/15/2019 07:38 PM 30.20 27.68 23.00 47.48 17.06 74.0 Not Reported 0.22 W 0.00 W 1.34 NW No 0.000 No Precipitation 03/12/2019 01:16 PM 03/12/2019 01:21 PM 0.000 0.000 0.000 0.000 0.000 Not Reported Not Reported
03/15/2019 07:53 PM 29.12 26.96 22.64 47.48 17.06 76.0 Not Reported 0.89 NW 1.12 NW 1.12 NW No 0.000 No Precipitation 03/12/2019 01:16 PM 03/12/2019 01:21 PM 0.000 0.000 0.000 0.000 0.000 Not Reported Not Reported
03/15/2019 08:08 PM 28.22 26.42 22.82 47.48 17.06 79.0 Not Reported 0.00 N 0.00 NW 1.34 W No 0.000 No Precipitation 03/12/2019 01:16 PM 03/12/2019 01:21 PM 0.000 0.000 0.000 0.000 0.000 Not Reported Not Reported
03/15/2019 08:23 PM 27.50 25.88 22.28 47.48 17.06 80.0 Not Reported 0.00 N 0.00 NW 0.00 NW No 0.000 No Precipitation 03/12/2019 01:16 PM 03/12/2019 01:21 PM 0.000 0.000 0.000 0.000 0.000 Not Reported Not Reported
03/15/2019 08:38 PM 27.32 25.70 22.46 47.48 17.06 81.0 Not Reported 0.00 N 0.00 NW 0.00 NW No 0.000 No Precipitation 03/12/2019 01:16 PM 03/12/2019 01:21 PM 0.000 0.000 0.000 0.000 0.000 Not Reported Not Reported
03/15/2019 08:53 PM 26.78 25.34 22.28 47.48 17.06 82.0 Not Reported 0.00 N 0.00 NW 0.00 NW No 0.000 No Precipitation 03/12/2019 01:16 PM 03/12/2019 01:21 PM 0.000 0.000 0.000 0.000 0.000 Not Reported Not Reported
03/15/2019 09:08 PM 26.42 24.98 22.10 47.48 17.06 83.0 Not Reported 0.00 N 0.00 NW 0.67 NW No 0.000 No Precipitation 03/12/2019 01:16 PM 03/12/2019 01:21 PM 0.000 0.000 0.000 0.000 0.000 Not Reported Not Reported
03/15/2019 09:23 PM 26.06 24.80 22.10 47.48 17.06 84.0 Not Reported 0.00 N 0.00 NW 0.00 NW No 0.000 No Precipitation 03/12/2019 01:16 PM 03/12/2019 01:21 PM 0.000 0.000 0.000 0.000 0.000 Not Reported Not Reported
03/15/2019 09:38 PM 25.88 24.62 22.10 47.48 17.06 85.0 Not Reported 0.00 SW 0.00 SW 0.00 NW No 0.000 No Precipitation 03/12/2019 01:16 PM 03/12/2019 01:21 PM 0.000 0.000 0.000 0.000 0.000 Not Reported Not Reported
03/15/2019 09:53 PM 25.52 24.26 21.74 47.48 17.06 85.0 Not Reported 0.00 N 0.00 SW 0.00 SW No 0.000 No Precipitation 03/12/2019 01:16 PM 03/12/2019 01:21 PM 0.000 0.000 0.000 0.000 0.000 Not Reported Not Reported
03/15/2019 10:08 PM 25.34 24.08 21.56 47.48 17.06 85.0 Not Reported 0.00 N 0.00 SW 0.00 SW No 0.000 No Precipitation 03/12/2019 01:16 PM 03/12/2019 01:21 PM 0.000 0.000 0.000 0.000 0.000 Not Reported Not Reported
03/15/2019 10:23 PM 25.16 23.90 21.56 47.48 17.06 85.0 Not Reported 0.00 N 0.00 SW 0.00 SW No 0.000 No Precipitation 03/12/2019 01:16 PM 03/12/2019 01:21 PM 0.000 0.000 0.000 0.000 0.000 Not Reported Not Reported
03/15/2019 10:38 PM 24.98 23.90 21.56 47.48 17.06 86.0 Not Reported 0.00 N 0.00 SW 0.00 SW No 0.000 No Precipitation 03/12/2019 01:16 PM 03/12/2019 01:21 PM 0.000 0.000 0.000 0.000 0.000 Not Reported Not Reported
03/15/2019 10:53 PM 24.62 23.72 21.38 47.48 17.06 87.0 Not Reported 0.00 N 0.00 SW 0.00 SW No 0.000 No Precipitation 03/12/2019 01:16 PM 03/12/2019 01:21 PM 0.000 0.000 0.000 0.000 0.000 Not Reported Not Reported
03/15/2019 11:08 PM 24.62 23.54 21.56 47.48 17.06 88.0 Not Reported 0.00 N 0.00 SW 0.00 SW No 0.000 No Precipitation 03/12/2019 01:16 PM 03/12/2019 01:21 PM 0.000 0.000 0.000 0.000 0.000 Not Reported Not Reported
03/15/2019 11:23 PM 24.26 23.36 21.56 47.48 17.06 88.0 Not Reported 0.00 N 0.00 SW 0.00 SW No 0.000 No Precipitation 03/12/2019 01:16 PM 03/12/2019 01:21 PM 0.000 0.000 0.000 0.000 0.000 Not Reported Not Reported
03/15/2019 11:38 PM 24.08 23.18 21.56 47.48 17.06 89.0 Not Reported 0.00 N 0.00 SW 0.45 SW No 0.000 No Precipitation 03/12/2019 01:16 PM 03/12/2019 01:21 PM 0.000 0.000 0.000 0.000 0.000 Not Reported Not Reported
03/15/2019 11:53 PM 23.90 23.18 21.56 47.48 17.06 90.0 Not Reported 0.00 N 0.00 SW 0.00 SW No 0.000 No Precipitation 03/12/2019 01:16 PM 03/12/2019 01:21 PM 0.000 0.000 0.000 0.000 0.000 Not Reported Not Reported